createdAt,value
2023-05-08T00:00:37.132Z,1114.00
2023-05-08T00:01:37.181Z,1106.00
2023-05-08T00:02:37.252Z,1122.00
2023-05-08T00:03:37.336Z,1115.00
2023-05-08T00:04:37.344Z,1110.00
2023-05-08T00:05:37.307Z,1120.00
2023-05-08T00:06:37.342Z,1113.00
2023-05-08T00:07:37.393Z,1118.00
2023-05-08T00:08:37.445Z,1122.00
2023-05-08T00:09:37.482Z,1110.00
2023-05-08T00:10:37.484Z,1104.00
2023-05-08T00:11:37.525Z,1116.00
2023-05-08T00:12:37.577Z,1121.00
2023-05-08T00:13:37.608Z,1121.00
2023-05-08T00:14:37.644Z,1108.00
2023-05-08T00:15:37.654Z,1114.00
2023-05-08T00:16:37.765Z,1115.00
2023-05-08T00:17:37.769Z,1117.00
2023-05-08T00:18:37.739Z,1118.00
2023-05-08T00:19:37.768Z,1110.00
2023-05-08T00:20:37.853Z,1124.00
2023-05-08T00:21:37.869Z,1115.00
2023-05-08T00:22:37.868Z,1117.00
2023-05-08T00:23:37.953Z,1129.00
2023-05-08T00:24:37.920Z,1119.00
2023-05-08T00:25:37.992Z,1122.00
2023-05-08T00:26:37.995Z,1118.00
2023-05-08T00:27:38.051Z,1115.00
2023-05-08T00:28:38.091Z,1116.00
2023-05-08T00:29:38.090Z,1123.00
2023-05-08T00:30:38.131Z,1130.00
2023-05-08T00:31:38.213Z,1119.00
2023-05-08T00:32:38.243Z,1115.00
2023-05-08T00:33:38.315Z,1113.00
2023-05-08T00:34:38.311Z,1117.00
2023-05-08T00:35:38.292Z,1111.00
2023-05-08T00:36:38.303Z,1124.00
2023-05-08T00:37:38.362Z,1125.00
2023-05-08T00:38:38.389Z,1124.00
2023-05-08T00:39:38.473Z,1113.00
2023-05-08T00:40:38.476Z,1121.00
2023-05-08T00:41:38.507Z,1117.00
2023-05-08T00:42:38.595Z,1125.00
2023-05-08T00:43:38.609Z,1114.00
2023-05-08T00:44:38.663Z,1119.00
2023-05-08T00:45:38.666Z,1131.00
2023-05-08T00:46:38.785Z,1136.00
2023-05-08T00:47:38.751Z,1113.00
2023-05-08T00:48:38.774Z,1125.00
2023-05-08T00:49:38.845Z,1127.00
2023-05-08T00:50:38.863Z,1128.00
2023-05-08T00:51:38.851Z,1122.00
2023-05-08T00:52:38.918Z,1132.00
2023-05-08T00:53:38.979Z,1122.00
2023-05-08T00:54:38.983Z,1123.00
2023-05-08T00:55:39.036Z,1123.00
2023-05-08T00:56:39.055Z,1111.00
2023-05-08T00:57:39.052Z,1127.00
2023-05-08T00:58:39.111Z,1122.00
2023-05-08T00:59:39.175Z,1119.00
2023-05-08T01:00:39.231Z,1133.00
2023-05-08T01:01:39.325Z,1125.00
2023-05-08T01:02:39.367Z,1121.00
2023-05-08T01:03:39.485Z,1116.00
2023-05-08T01:04:39.372Z,1126.00
2023-05-08T01:05:39.371Z,1118.00
2023-05-08T01:06:39.436Z,1116.00
2023-05-08T01:07:39.459Z,1130.00
2023-05-08T01:08:39.500Z,1127.00
2023-05-08T01:09:39.545Z,1124.00
2023-05-08T01:10:39.608Z,1125.00
2023-05-08T01:11:39.632Z,1123.00
2023-05-08T01:12:39.746Z,1125.00
2023-05-08T01:13:39.733Z,1131.00
2023-05-08T01:14:39.743Z,1128.00
2023-05-08T01:15:39.858Z,1118.00
2023-05-08T01:16:39.858Z,1130.00
2023-05-08T01:17:39.877Z,1123.00
2023-05-08T01:18:39.973Z,1124.00
2023-05-08T01:19:39.957Z,1125.00
2023-05-08T01:20:40.034Z,1127.00
2023-05-08T01:21:40.047Z,1121.00
2023-05-08T01:22:40.079Z,1135.00
2023-05-08T01:23:40.115Z,1132.00
2023-05-08T01:24:40.182Z,1125.00
2023-05-08T01:25:40.244Z,1129.00
2023-05-08T01:26:40.279Z,1131.00
2023-05-08T01:27:40.284Z,1113.00
2023-05-08T01:28:40.395Z,1123.00
2023-05-08T01:29:40.416Z,1133.00
2023-05-08T01:30:40.444Z,1124.00
2023-05-08T01:31:40.526Z,1121.00
2023-05-08T01:32:40.606Z,1119.00
2023-05-08T01:33:40.660Z,1120.00
2023-05-08T01:34:40.642Z,1122.00
2023-05-08T01:35:40.679Z,1129.00
2023-05-08T01:36:40.728Z,1120.00
2023-05-08T01:37:40.787Z,1124.00
2023-05-08T01:38:40.815Z,1125.00
2023-05-08T01:39:40.836Z,1131.00
2023-05-08T01:40:40.892Z,1122.00
2023-05-08T01:41:41.051Z,1124.00
2023-05-08T01:42:41.017Z,1133.00
2023-05-08T01:43:41.047Z,1125.00
2023-05-08T01:44:41.083Z,1122.00
2023-05-08T01:45:41.129Z,1124.00
2023-05-08T01:46:41.205Z,1128.00
2023-05-08T01:47:41.278Z,1114.00
2023-05-08T01:48:41.280Z,1126.00
2023-05-08T01:49:41.320Z,1125.00
2023-05-08T01:50:41.363Z,1113.00
2023-05-08T01:51:41.417Z,1114.00
2023-05-08T01:52:41.482Z,1105.00
2023-05-08T01:53:41.553Z,1129.00
2023-05-08T01:54:41.600Z,1122.00
2023-05-08T01:55:41.608Z,1127.00
2023-05-08T01:56:41.667Z,1119.00
2023-05-08T01:57:41.757Z,1126.00
2023-05-08T01:58:41.780Z,1123.00
2023-05-08T01:59:41.849Z,1125.00
2023-05-08T02:00:41.902Z,1125.00
2023-05-08T02:01:41.915Z,1129.00
2023-05-08T02:02:42.123Z,1125.00
2023-05-08T02:03:42.111Z,1140.00
2023-05-08T02:04:42.073Z,1125.00
2023-05-08T02:05:42.137Z,1121.00
2023-05-08T02:06:42.166Z,1149.00
2023-05-08T02:07:42.318Z,1123.00
2023-05-08T02:08:42.287Z,1130.00
2023-05-08T02:09:42.346Z,1127.00
2023-05-08T02:10:42.390Z,1128.00
2023-05-08T02:11:42.441Z,1123.00
2023-05-08T02:12:42.578Z,1127.00
2023-05-08T02:13:42.569Z,1130.00
2023-05-08T02:14:42.615Z,1130.00
2023-05-08T02:15:42.659Z,1137.00
2023-05-08T02:16:42.780Z,1126.00
2023-05-08T02:17:42.785Z,1135.00
2023-05-08T02:18:42.809Z,1123.00
2023-05-08T02:19:42.868Z,1142.00
2023-05-08T02:20:42.948Z,1130.00
2023-05-08T02:21:42.965Z,1134.00
2023-05-08T02:22:43.043Z,1130.00
2023-05-08T02:23:43.092Z,1130.00
2023-05-08T02:24:43.128Z,1129.00
2023-05-08T02:25:43.215Z,1125.00
2023-05-08T02:26:43.251Z,1124.00
2023-05-08T02:27:43.301Z,1137.00
2023-05-08T02:28:43.359Z,1134.00
2023-05-08T02:29:43.415Z,1137.00
2023-05-08T02:30:43.457Z,1141.00
2023-05-08T02:31:43.536Z,1135.00
2023-05-08T02:32:43.619Z,1127.00
2023-05-08T02:33:43.625Z,1125.00
2023-05-08T02:34:51.417Z,1140.00
2023-05-08T02:35:44.651Z,1140.00
2023-05-08T02:36:43.705Z,1140.00
2023-05-08T02:37:43.647Z,1146.00
2023-05-08T02:38:43.649Z,1143.00
2023-05-08T02:39:43.640Z,1138.00
2023-05-08T02:40:43.622Z,1141.00
2023-05-08T02:41:43.633Z,1139.00
2023-05-08T02:42:43.617Z,1127.00
2023-05-08T02:43:43.608Z,1139.00
2023-05-08T02:44:43.583Z,1139.00
2023-05-08T02:45:43.637Z,1136.00
2023-05-08T02:46:43.688Z,1141.00
2023-05-08T02:47:43.801Z,1133.00
2023-05-08T02:48:43.816Z,1144.00
2023-05-08T02:49:43.850Z,1140.00
2023-05-08T02:50:43.938Z,1135.00
2023-05-08T02:51:43.966Z,1124.00
2023-05-08T02:52:44.001Z,1137.00
2023-05-08T02:53:44.093Z,1133.00
2023-05-08T02:54:44.095Z,1137.00
2023-05-08T02:55:44.189Z,1134.00
2023-05-08T02:56:44.247Z,1136.00
2023-05-08T02:57:44.282Z,1127.00
2023-05-08T02:58:44.312Z,1128.00
2023-05-08T02:59:44.356Z,1135.00
2023-05-08T03:00:44.394Z,1128.00
2023-05-08T03:01:44.499Z,1130.00
2023-05-08T03:02:44.661Z,1132.00
2023-05-08T03:03:44.883Z,1131.00
2023-05-08T03:04:44.626Z,1142.00
2023-05-08T03:05:44.666Z,1134.00
2023-05-08T03:06:44.727Z,1116.00
2023-05-08T03:07:44.774Z,1138.00
2023-05-08T03:08:44.803Z,1140.00
2023-05-08T03:09:44.890Z,1140.00
2023-05-08T03:10:44.961Z,1142.00
2023-05-08T03:11:44.998Z,1129.00
2023-05-08T03:12:45.118Z,1127.00
2023-05-08T03:13:45.116Z,1133.00
2023-05-08T03:14:45.244Z,1143.00
2023-05-08T03:15:45.243Z,1140.00
2023-05-08T03:16:45.270Z,1132.00
2023-05-08T03:17:45.342Z,1140.00
2023-05-08T03:18:45.379Z,1138.00
2023-05-08T03:19:45.415Z,1122.00
2023-05-08T03:20:45.484Z,1132.00
2023-05-08T03:21:45.527Z,1140.00
2023-05-08T03:22:45.583Z,1133.00
2023-05-08T03:23:45.627Z,1131.00
2023-05-08T03:24:45.707Z,1138.00
2023-05-08T03:25:45.738Z,1136.00
2023-05-08T03:26:45.797Z,1122.00
2023-05-08T03:27:45.816Z,1136.00
2023-05-08T03:28:45.898Z,1139.00
2023-05-08T03:29:45.910Z,1137.00
2023-05-08T03:30:45.955Z,1140.00
2023-05-08T03:31:46.102Z,1130.00
2023-05-08T03:32:46.124Z,1126.00
2023-05-08T03:33:46.128Z,1142.00
2023-05-08T03:34:46.210Z,1135.00
2023-05-08T03:35:46.297Z,1137.00
2023-05-08T03:36:46.291Z,1141.00
2023-05-08T03:37:46.342Z,1135.00
2023-05-08T03:38:46.394Z,1142.00
2023-05-08T03:39:46.433Z,1149.00
2023-05-08T03:40:46.468Z,1141.00
2023-05-08T03:41:46.547Z,1142.00
2023-05-08T03:42:46.615Z,1141.00
2023-05-08T03:43:46.626Z,1136.00
2023-05-08T03:44:46.738Z,1128.00
2023-05-08T03:45:46.724Z,1133.00
2023-05-08T03:46:46.902Z,1142.00
2023-05-08T03:47:47.415Z,1147.00
2023-05-08T03:48:46.896Z,1136.00
2023-05-08T03:49:46.929Z,1142.00
2023-05-08T03:50:46.997Z,1135.00
2023-05-08T03:51:47.051Z,1140.00
2023-05-08T03:52:47.114Z,1130.00
2023-05-08T03:53:47.158Z,1137.00
2023-05-08T03:54:47.239Z,1134.00
2023-05-08T03:55:47.279Z,1132.00
2023-05-08T03:56:47.322Z,1138.00
2023-05-08T03:57:47.358Z,1138.00
2023-05-08T03:58:47.396Z,1133.00
2023-05-08T03:59:47.438Z,1142.00
2023-05-08T04:00:47.550Z,1143.00
2023-05-08T04:01:47.588Z,1137.00
2023-05-08T04:02:47.694Z,1140.00
2023-05-08T04:03:47.836Z,1149.00
2023-05-08T04:04:47.732Z,1133.00
2023-05-08T04:05:47.757Z,1130.00
2023-05-08T04:06:50.602Z,1098.00
2023-05-08T04:07:47.851Z,1088.00
2023-05-08T04:08:47.836Z,1060.00
2023-05-08T04:09:47.785Z,1035.00
2023-05-08T04:10:47.787Z,1004.00
2023-05-08T04:11:47.776Z,986.00
2023-05-08T04:12:47.804Z,963.00
2023-05-08T04:13:47.756Z,933.00
2023-05-08T04:14:47.765Z,921.00
2023-05-08T04:15:47.794Z,920.00
2023-05-08T04:16:47.812Z,908.00
2023-05-08T04:17:47.813Z,894.00
2023-05-08T04:18:47.754Z,868.00
2023-05-08T04:19:47.746Z,850.00
2023-05-08T04:20:47.727Z,822.00
2023-05-08T04:21:47.723Z,820.00
2023-05-08T04:22:47.733Z,779.00
2023-05-08T04:23:47.732Z,786.00
2023-05-08T04:24:47.707Z,777.00
2023-05-08T04:25:47.710Z,738.00
2023-05-08T04:26:47.693Z,731.00
2023-05-08T04:27:47.673Z,732.00
2023-05-08T04:28:47.786Z,740.00
2023-05-08T04:29:47.731Z,703.00
2023-05-08T04:30:47.658Z,689.00
2023-05-08T04:31:47.731Z,683.00
2023-05-08T04:32:47.681Z,698.00
2023-05-08T04:33:47.653Z,683.00
2023-05-08T04:34:47.664Z,699.00
2023-05-08T04:35:47.621Z,696.00
2023-05-08T04:36:47.637Z,697.00
2023-05-08T04:37:47.638Z,682.00
2023-05-08T04:38:47.656Z,680.00
2023-05-08T04:39:48.396Z,685.00
2023-05-08T04:40:47.607Z,701.00
2023-05-08T04:41:47.646Z,680.00
2023-05-08T04:42:47.831Z,680.00
2023-05-08T04:43:47.583Z,705.00
2023-05-08T04:44:47.635Z,688.00
2023-05-08T04:45:47.615Z,698.00
2023-05-08T04:46:47.540Z,679.00
2023-05-08T04:47:47.566Z,687.00
2023-05-08T04:48:47.577Z,694.00
2023-05-08T04:49:47.659Z,697.00
2023-05-08T04:50:47.731Z,718.00
2023-05-08T04:51:47.742Z,724.00
2023-05-08T04:52:47.843Z,717.00
2023-05-08T04:53:47.855Z,710.00
2023-05-08T04:54:47.896Z,712.00
2023-05-08T04:55:48.008Z,719.00
2023-05-08T04:56:48.080Z,705.00
2023-05-08T04:57:48.112Z,718.00
2023-05-08T04:58:48.185Z,718.00
2023-05-08T04:59:48.231Z,709.00
2023-05-08T05:00:48.320Z,721.00
2023-05-08T05:01:48.438Z,726.00
2023-05-08T05:02:48.559Z,707.00
2023-05-08T05:03:48.541Z,722.00
2023-05-08T05:04:48.581Z,719.00
2023-05-08T05:05:48.654Z,714.00
2023-05-08T05:06:48.701Z,707.00
2023-05-08T05:07:48.759Z,705.00
2023-05-08T05:08:48.808Z,698.00
2023-05-08T05:09:48.839Z,698.00
2023-05-08T05:10:48.913Z,709.00
2023-05-08T05:11:48.937Z,709.00
2023-05-08T05:12:49.044Z,698.00
2023-05-08T05:13:49.113Z,695.00
2023-05-08T05:14:49.102Z,689.00
2023-05-08T05:15:49.248Z,705.00
2023-05-08T05:16:49.271Z,696.00
2023-05-08T05:17:49.318Z,696.00
2023-05-08T05:18:49.346Z,696.00
2023-05-08T05:19:50.400Z,677.00
2023-05-08T05:20:49.471Z,682.00
2023-05-08T05:21:49.512Z,686.00
2023-05-08T05:22:49.698Z,697.00
2023-05-08T05:23:49.581Z,687.00
2023-05-08T05:24:49.630Z,684.00
2023-05-08T05:25:49.642Z,693.00
2023-05-08T05:26:49.697Z,681.00
2023-05-08T05:27:49.702Z,691.00
2023-05-08T05:28:49.773Z,688.00
2023-05-08T05:29:49.780Z,687.00
2023-05-08T05:30:49.832Z,685.00
2023-05-08T05:31:49.954Z,680.00
2023-05-08T05:32:49.902Z,676.00
2023-05-08T05:33:49.877Z,691.00
2023-05-08T05:34:49.866Z,692.00
2023-05-08T05:35:49.869Z,684.00
2023-05-08T05:36:50.733Z,683.00
2023-05-08T05:37:49.876Z,683.00
2023-05-08T05:38:49.907Z,661.00
2023-05-08T05:39:49.893Z,655.00
2023-05-08T05:40:49.941Z,657.00
2023-05-08T05:41:49.973Z,654.00
2023-05-08T05:42:49.933Z,656.00
2023-05-08T05:43:50.040Z,651.00
2023-05-08T05:44:50.034Z,662.00
2023-05-08T05:45:50.062Z,674.00
2023-05-08T05:46:50.104Z,679.00
2023-05-08T05:47:50.737Z,690.00
2023-05-08T05:48:50.183Z,702.00
2023-05-08T05:49:50.215Z,752.00
2023-05-08T05:50:50.219Z,770.00
2023-05-08T05:51:50.280Z,795.00
2023-05-08T05:52:50.289Z,823.00
2023-05-08T05:53:50.296Z,831.00
2023-05-08T05:54:50.337Z,843.00
2023-05-08T05:55:50.343Z,849.00
2023-05-08T05:56:50.439Z,881.00
2023-05-08T05:57:50.408Z,891.00
2023-05-08T05:58:50.439Z,902.00
2023-05-08T05:59:50.432Z,922.00
2023-05-08T06:00:50.398Z,924.00
2023-05-08T06:01:50.493Z,942.00
2023-05-08T06:02:50.553Z,957.00
2023-05-08T06:03:50.444Z,984.00
2023-05-08T06:04:50.426Z,991.00
2023-05-08T06:05:50.402Z,1005.00
2023-05-08T06:06:50.483Z,1023.00
2023-05-08T06:07:50.450Z,1045.00
2023-05-08T06:08:50.416Z,1056.00
2023-05-08T06:09:50.418Z,1071.00
2023-05-08T06:10:50.478Z,1068.00
2023-05-08T06:11:50.489Z,1079.00
2023-05-08T06:12:50.544Z,1105.00
2023-05-08T06:13:50.819Z,1099.00
2023-05-08T06:14:50.546Z,1108.00
2023-05-08T06:15:50.572Z,1123.00
2023-05-08T06:16:50.624Z,1130.00
2023-05-08T06:17:50.652Z,1168.00
2023-05-08T06:18:50.622Z,1165.00
2023-05-08T06:19:50.710Z,1184.00
2023-05-08T06:20:50.687Z,1185.00
2023-05-08T06:21:50.680Z,1183.00
2023-05-08T06:22:50.734Z,1170.00
2023-05-08T06:23:50.849Z,1213.00
2023-05-08T06:24:50.838Z,1212.00
2023-05-08T06:25:50.948Z,1214.00
2023-05-08T06:26:50.936Z,1214.00
2023-05-08T06:27:51.040Z,1214.00
2023-05-08T06:28:51.088Z,1211.00
2023-05-08T06:29:51.152Z,1200.00
2023-05-08T06:30:51.274Z,1220.00
2023-05-08T06:31:51.268Z,1223.00
2023-05-08T06:32:51.296Z,1225.00
2023-05-08T06:33:52.120Z,1234.00
2023-05-08T06:34:52.460Z,1238.00
2023-05-08T06:35:51.499Z,1253.00
2023-05-08T06:36:51.566Z,1247.00
2023-05-08T06:37:51.644Z,1257.00
2023-05-08T06:38:51.719Z,1237.00
2023-05-08T06:40:03.905Z,1250.00
2023-05-08T06:40:52.714Z,1251.00
2023-05-08T06:41:51.739Z,1253.00
2023-05-08T06:42:51.743Z,1253.00
2023-05-08T06:43:51.765Z,1255.00
2023-05-08T06:44:51.721Z,1250.00
2023-05-08T06:45:51.828Z,1237.00
2023-05-08T06:46:51.793Z,1222.00
2023-05-08T06:47:51.739Z,1202.00
2023-05-08T06:48:51.802Z,1206.00
2023-05-08T06:49:51.905Z,1211.00
2023-05-08T06:50:51.928Z,1196.00
2023-05-08T06:51:51.949Z,1217.00
2023-05-08T06:52:52.028Z,1190.00
2023-05-08T06:53:52.075Z,1210.00
2023-05-08T06:54:52.130Z,1208.00
2023-05-08T06:55:52.186Z,1211.00
2023-05-08T06:56:52.217Z,1225.00
2023-05-08T06:57:52.220Z,1244.00
2023-05-08T06:59:04.545Z,1232.00
2023-05-08T06:59:53.305Z,1232.00
2023-05-08T07:00:52.237Z,1236.00
2023-05-08T07:01:52.370Z,1244.00
2023-05-08T07:02:52.374Z,1247.00
2023-05-08T07:03:52.238Z,1272.00
2023-05-08T07:04:52.293Z,1270.00
2023-05-08T07:05:52.211Z,1265.00
2023-05-08T07:06:52.215Z,1275.00
2023-05-08T07:07:52.255Z,1271.00
2023-05-08T07:08:52.340Z,1269.00
2023-05-08T07:09:52.389Z,1280.00
2023-05-08T07:10:52.485Z,1280.00
2023-05-08T07:11:52.519Z,1303.00
2023-05-08T07:12:52.708Z,1291.00
2023-05-08T07:13:52.694Z,1293.00
2023-05-08T07:14:52.728Z,1314.00
2023-05-08T07:15:52.828Z,1305.00
2023-05-08T07:16:52.851Z,1290.00
2023-05-08T07:17:52.994Z,1306.00
2023-05-08T07:18:52.937Z,1326.00
2023-05-08T07:19:52.981Z,1306.00
2023-05-08T07:20:53.059Z,1322.00
2023-05-08T07:21:53.121Z,1317.00
2023-05-08T07:22:53.763Z,1327.00
2023-05-08T07:23:53.258Z,1332.00
2023-05-08T07:24:53.269Z,1326.00
2023-05-08T07:25:53.330Z,1317.00
2023-05-08T07:26:53.420Z,1306.00
2023-05-08T07:27:53.433Z,1345.00
2023-05-08T07:28:53.502Z,1315.00
2023-05-08T07:29:53.564Z,1279.00
2023-05-08T07:30:53.639Z,1270.00
2023-05-08T07:31:53.771Z,1255.00
2023-05-08T07:32:53.833Z,1166.00
2023-05-08T07:33:53.777Z,1113.00
2023-05-08T07:34:53.808Z,1095.00
2023-05-08T07:35:53.745Z,1036.00
2023-05-08T07:36:53.754Z,995.00
2023-05-08T07:37:53.808Z,987.00
2023-05-08T07:38:53.818Z,997.00
2023-05-08T07:39:53.812Z,1006.00
2023-05-08T07:40:53.840Z,1013.00
2023-05-08T07:41:53.826Z,1034.00
2023-05-08T07:42:53.837Z,1028.00
2023-05-08T07:43:53.885Z,1027.00
2023-05-08T07:44:55.178Z,1045.00
2023-05-08T07:45:53.879Z,1022.00
2023-05-08T07:46:53.912Z,1017.00
2023-05-08T07:47:53.898Z,1019.00
2023-05-08T07:48:53.867Z,1017.00
2023-05-08T07:49:53.867Z,998.00
2023-05-08T07:50:53.888Z,1003.00
2023-05-08T07:51:53.964Z,982.00
2023-05-08T07:52:53.914Z,996.00
2023-05-08T07:53:53.860Z,991.00
2023-05-08T07:54:53.873Z,993.00
2023-05-08T07:55:53.875Z,1000.00
2023-05-08T07:56:53.881Z,987.00
2023-05-08T07:57:53.839Z,984.00
2023-05-08T07:58:53.909Z,957.00
2023-05-08T07:59:53.899Z,983.00
2023-05-08T08:00:53.836Z,966.00
2023-05-08T08:01:54.029Z,970.00
2023-05-08T08:02:54.076Z,957.00
2023-05-08T08:03:53.956Z,967.00
2023-05-08T08:04:53.884Z,947.00
2023-05-08T08:05:53.864Z,963.00
2023-05-08T08:06:53.819Z,957.00
2023-05-08T08:07:53.873Z,985.00
2023-05-08T08:08:53.903Z,946.00
2023-05-08T08:09:53.977Z,951.00
2023-05-08T08:10:53.990Z,963.00
2023-05-08T08:11:54.029Z,950.00
2023-05-08T08:12:54.073Z,934.00
2023-05-08T08:13:54.107Z,933.00
2023-05-08T08:14:54.117Z,942.00
2023-05-08T08:15:54.128Z,939.00
2023-05-08T08:16:54.198Z,921.00
2023-05-08T08:17:54.264Z,942.00
2023-05-08T08:18:54.192Z,956.00
2023-05-08T08:19:54.205Z,949.00
2023-05-08T08:20:54.207Z,957.00
2023-05-08T08:21:54.207Z,968.00
2023-05-08T08:22:54.209Z,933.00
2023-05-08T08:23:54.198Z,926.00
2023-05-08T08:24:55.405Z,944.00
2023-05-08T08:25:54.216Z,954.00
2023-05-08T08:26:54.299Z,956.00
2023-05-08T08:27:54.302Z,971.00
2023-05-08T08:28:54.383Z,960.00
2023-05-08T08:30:01.535Z,946.00
2023-05-08T08:30:55.456Z,948.00
2023-05-08T08:31:54.444Z,947.00
2023-05-08T08:32:54.458Z,939.00
2023-05-08T08:33:54.519Z,936.00
2023-05-08T08:34:54.398Z,962.00
2023-05-08T08:35:54.402Z,963.00
2023-05-08T08:36:54.396Z,931.00
2023-05-08T08:37:54.412Z,920.00
2023-05-08T08:38:54.377Z,868.00
2023-05-08T08:39:54.372Z,841.00
2023-05-08T08:40:54.402Z,810.00
2023-05-08T08:41:54.349Z,928.00
2023-05-08T08:42:54.354Z,961.00
2023-05-08T08:43:54.309Z,931.00
2023-05-08T08:44:54.367Z,962.00
2023-05-08T08:45:54.351Z,1023.00
2023-05-08T08:46:54.365Z,1132.00
2023-05-08T08:47:54.343Z,1377.00
2023-05-08T08:48:54.354Z,1397.00
2023-05-08T08:49:54.376Z,1304.00
2023-05-08T08:50:54.280Z,1388.00
2023-05-08T08:51:54.341Z,1310.00
2023-05-08T08:52:54.336Z,1215.00
2023-05-08T08:53:54.290Z,1214.00
2023-05-08T08:54:54.284Z,1206.00
2023-05-08T08:55:54.234Z,1315.00
2023-05-08T08:56:54.274Z,1222.00
2023-05-08T08:57:54.250Z,1161.00
2023-05-08T08:58:54.245Z,1147.00
2023-05-08T08:59:54.236Z,1145.00
2023-05-08T09:00:54.236Z,1137.00
2023-05-08T09:01:54.317Z,1119.00
2023-05-08T09:02:54.285Z,1151.00
2023-05-08T09:03:54.369Z,1180.00
2023-05-08T09:04:54.200Z,1140.00
2023-05-08T09:05:54.329Z,1128.00
2023-05-08T09:06:54.224Z,1124.00
2023-05-08T09:07:54.307Z,1175.00
2023-05-08T09:08:54.223Z,1205.00
2023-05-08T09:09:54.285Z,1136.00
2023-05-08T09:10:54.300Z,1151.00
2023-05-08T09:11:54.220Z,1139.00
2023-05-08T09:12:54.319Z,1127.00
2023-05-08T09:13:54.230Z,1131.00
2023-05-08T09:14:56.178Z,1090.00
2023-05-08T09:15:54.434Z,1087.00
2023-05-08T09:16:54.244Z,1166.00
2023-05-08T09:17:54.287Z,1215.00
2023-05-08T09:18:54.244Z,1210.00
2023-05-08T09:19:54.237Z,1150.00
2023-05-08T09:20:54.250Z,1131.00
2023-05-08T09:21:54.318Z,1052.00
2023-05-08T09:22:54.202Z,1060.00
2023-05-08T09:23:54.216Z,1049.00
2023-05-08T09:24:54.282Z,1026.00
2023-05-08T09:25:54.246Z,1019.00
2023-05-08T09:26:54.236Z,1042.00
2023-05-08T09:27:54.521Z,1040.00
2023-05-08T09:28:54.531Z,1004.00
2023-05-08T09:29:54.206Z,927.00
2023-05-08T09:30:54.266Z,955.00
2023-05-08T09:31:54.357Z,992.00
2023-05-08T09:32:54.311Z,966.00
2023-05-08T09:33:54.291Z,914.00
2023-05-08T09:34:54.380Z,836.00
2023-05-08T09:35:54.351Z,801.00
2023-05-08T09:36:54.422Z,811.00
2023-05-08T09:37:57.203Z,896.00
2023-05-08T09:38:54.438Z,916.00
2023-05-08T09:39:54.409Z,955.00
2023-05-08T09:40:54.401Z,996.00
2023-05-08T09:41:54.420Z,1031.00
2023-05-08T09:42:54.400Z,1046.00
2023-05-08T09:43:54.437Z,1048.00
2023-05-08T09:44:54.368Z,1047.00
2023-05-08T09:45:54.348Z,1065.00
2023-05-08T09:46:54.365Z,1081.00
2023-05-08T09:47:54.358Z,1099.00
2023-05-08T09:48:54.321Z,1092.00
2023-05-08T09:49:54.370Z,1116.00
2023-05-08T09:50:54.297Z,1115.00
2023-05-08T09:51:54.390Z,1112.00
2023-05-08T09:52:54.319Z,1117.00
2023-05-08T09:53:54.394Z,1083.00
2023-05-08T09:54:54.322Z,1142.00
2023-05-08T09:55:55.062Z,1139.00
2023-05-08T09:56:54.301Z,1156.00
2023-05-08T09:57:54.321Z,1183.00
2023-05-08T09:58:54.297Z,1210.00
2023-05-08T09:59:54.321Z,1195.00
2023-05-08T10:00:54.297Z,1219.00
2023-05-08T10:01:54.276Z,1222.00
2023-05-08T10:02:54.278Z,1195.00
2023-05-08T10:03:54.262Z,1212.00
2023-05-08T10:04:54.250Z,1214.00
2023-05-08T10:05:54.246Z,1243.00
2023-05-08T10:06:56.363Z,1236.00
2023-05-08T10:07:54.619Z,1257.00
2023-05-08T10:08:54.223Z,1275.00
2023-05-08T10:09:54.335Z,1297.00
2023-05-08T10:10:54.319Z,1296.00
2023-05-08T10:11:54.401Z,1277.00
2023-05-08T10:12:54.476Z,1317.00
2023-05-08T10:13:54.540Z,1285.00
2023-05-08T10:14:55.230Z,1312.00
2023-05-08T10:15:54.629Z,1320.00
2023-05-08T10:16:54.798Z,1351.00
2023-05-08T10:17:54.769Z,1366.00
2023-05-08T10:18:54.799Z,1353.00
2023-05-08T10:19:54.812Z,1385.00
2023-05-08T10:20:54.928Z,1389.00
2023-05-08T10:21:54.920Z,1389.00
2023-05-08T10:22:55.018Z,1419.00
2023-05-08T10:23:55.078Z,1397.00
2023-05-08T10:24:55.158Z,1409.00
2023-05-08T10:25:55.305Z,1388.00
2023-05-08T10:27:05.618Z,1373.00
2023-05-08T10:27:56.305Z,1374.00
2023-05-08T10:28:55.251Z,1376.00
2023-05-08T10:29:55.589Z,1389.00
2023-05-08T10:30:55.253Z,1390.00
2023-05-08T10:31:55.236Z,1395.00
2023-05-08T10:32:55.405Z,1371.00
2023-05-08T10:33:55.205Z,1376.00
2023-05-08T10:34:55.283Z,1357.00
2023-05-08T10:35:55.266Z,1357.00
2023-05-08T10:36:55.316Z,1345.00
2023-05-08T10:37:55.323Z,1342.00
2023-05-08T10:38:55.331Z,1320.00
2023-05-08T10:39:55.319Z,1256.00
2023-05-08T10:40:55.334Z,1216.00
2023-05-08T10:41:55.431Z,1216.00
2023-05-08T10:42:55.314Z,1207.00
2023-05-08T10:43:55.317Z,1163.00
2023-05-08T10:44:55.371Z,1162.00
2023-05-08T10:45:55.399Z,1122.00
2023-05-08T10:46:55.339Z,1097.00
2023-05-08T10:47:55.361Z,1095.00
2023-05-08T10:48:55.363Z,1097.00
2023-05-08T10:49:55.309Z,1082.00
2023-05-08T10:50:55.308Z,1081.00
2023-05-08T10:51:55.367Z,1055.00
2023-05-08T10:52:55.328Z,1021.00
2023-05-08T10:53:55.288Z,1013.00
2023-05-08T10:54:55.298Z,1011.00
2023-05-08T10:55:55.309Z,987.00
2023-05-08T10:56:55.314Z,989.00
2023-05-08T10:57:55.340Z,954.00
2023-05-08T10:58:55.286Z,960.00
2023-05-08T10:59:55.332Z,946.00
2023-05-08T11:00:55.323Z,917.00
2023-05-08T11:01:55.399Z,913.00
2023-05-08T11:02:55.321Z,921.00
2023-05-08T11:03:55.890Z,913.00
2023-05-08T11:04:55.405Z,887.00
2023-05-08T11:05:55.307Z,869.00
2023-05-08T11:06:55.311Z,932.00
2023-05-08T11:07:55.332Z,948.00
2023-05-08T11:08:55.318Z,929.00
2023-05-08T11:09:55.334Z,954.00
2023-05-08T11:10:55.307Z,950.00
2023-05-08T11:11:55.328Z,986.00
2023-05-08T11:12:55.471Z,985.00
2023-05-08T11:13:55.391Z,1016.00
2023-05-08T11:14:55.355Z,1014.00
2023-05-08T11:15:55.374Z,1009.00
2023-05-08T11:16:55.346Z,1021.00
2023-05-08T11:17:55.370Z,1010.00
2023-05-08T11:18:55.348Z,1015.00
2023-05-08T11:19:55.364Z,1008.00
2023-05-08T11:20:55.362Z,996.00
2023-05-08T11:21:55.343Z,980.00
2023-05-08T11:22:55.383Z,953.00
2023-05-08T11:23:55.354Z,951.00
2023-05-08T11:24:55.335Z,959.00
2023-05-08T11:25:55.321Z,954.00
2023-05-08T11:26:55.347Z,958.00
2023-05-08T11:27:55.340Z,959.00
2023-05-08T11:28:55.354Z,967.00
2023-05-08T11:29:55.441Z,955.00
2023-05-08T11:30:55.357Z,971.00
2023-05-08T11:31:55.412Z,975.00
2023-05-08T11:32:55.422Z,958.00
2023-05-08T11:33:55.359Z,971.00
2023-05-08T11:34:55.380Z,975.00
2023-05-08T11:35:55.490Z,1005.00
2023-05-08T11:36:55.420Z,982.00
2023-05-08T11:37:55.410Z,982.00
2023-05-08T11:38:56.371Z,978.00
2023-05-08T11:39:55.436Z,1007.00
2023-05-08T11:40:55.444Z,1006.00
2023-05-08T11:41:55.460Z,994.00
2023-05-08T11:42:55.446Z,1039.00
2023-05-08T11:43:55.497Z,1047.00
2023-05-08T11:44:55.556Z,1010.00
2023-05-08T11:45:55.508Z,1020.00
2023-05-08T11:46:55.597Z,1037.00
2023-05-08T11:47:55.573Z,1030.00
2023-05-08T11:48:55.560Z,1007.00
2023-05-08T11:49:55.570Z,1005.00
2023-05-08T11:50:55.570Z,1023.00
2023-05-08T11:51:55.586Z,1002.00
2023-05-08T11:52:55.624Z,1009.00
2023-05-08T11:53:55.691Z,1010.00
2023-05-08T11:54:55.695Z,1023.00
2023-05-08T11:55:55.722Z,1009.00
2023-05-08T11:56:55.709Z,1003.00
2023-05-08T11:57:55.714Z,1013.00
2023-05-08T11:58:55.729Z,1008.00
2023-05-08T11:59:55.768Z,1014.00
2023-05-08T12:00:55.788Z,998.00
2023-05-08T12:02:07.583Z,1009.00
2023-05-08T12:02:56.840Z,1010.00
2023-05-08T12:03:55.962Z,1011.00
2023-05-08T12:04:55.777Z,1010.00
2023-05-08T12:05:55.716Z,995.00
2023-05-08T12:06:55.678Z,1004.00
2023-05-08T12:07:55.917Z,992.00
2023-05-08T12:08:55.708Z,994.00
2023-05-08T12:09:55.653Z,987.00
2023-05-08T12:10:55.652Z,987.00
2023-05-08T12:11:55.638Z,987.00
2023-05-08T12:12:55.659Z,970.00